createdAt,value
2022-12-19T00:01:35.385Z,24.23
2022-12-19T00:04:08.414Z,23.40
2022-12-19T00:06:37.595Z,23.27
2022-12-19T00:09:05.539Z,23.37
2022-12-19T00:11:33.854Z,24.13
2022-12-19T00:14:02.360Z,24.47
2022-12-19T00:16:31.122Z,24.87
2022-12-19T00:19:00.491Z,23.10
2022-12-19T00:21:29.390Z,24.20
2022-12-19T00:23:58.141Z,23.17
2022-12-19T00:26:30.126Z,24.30
2022-12-19T00:28:59.408Z,24.33
2022-12-19T00:31:28.102Z,25.47
2022-12-19T00:33:56.223Z,25.50
2022-12-19T00:36:26.183Z,24.30
2022-12-19T00:38:55.041Z,25.67
2022-12-19T00:41:24.343Z,23.47
2022-12-19T00:43:55.462Z,24.67
2022-12-19T00:46:23.462Z,23.33
2022-12-19T00:48:58.211Z,24.07
2022-12-19T00:51:29.854Z,23.23
2022-12-19T00:53:58.288Z,25.30
2022-12-19T00:56:27.581Z,22.73
2022-12-19T00:58:55.997Z,22.23
2022-12-19T01:01:26.401Z,24.47
2022-12-19T01:04:26.565Z,23.10
2022-12-19T01:06:43.290Z,22.43
2022-12-19T01:09:12.528Z,22.60
2022-12-19T01:11:58.540Z,20.63
2022-12-19T01:14:27.407Z,23.63
2022-12-19T01:16:55.552Z,22.67
2022-12-19T01:19:23.188Z,23.37
2022-12-19T01:21:51.231Z,24.60
2022-12-19T01:24:20.017Z,24.13
2022-12-19T01:26:48.385Z,23.37
2022-12-19T01:29:16.449Z,22.67
2022-12-19T01:31:44.213Z,23.23
2022-12-19T01:34:12.663Z,23.27
2022-12-19T01:36:40.607Z,23.47
2022-12-19T01:39:08.740Z,22.27
2022-12-19T01:41:36.622Z,24.20
2022-12-19T01:44:06.324Z,23.23
2022-12-19T01:46:37.561Z,23.37
2022-12-19T01:49:08.471Z,22.17
2022-12-19T01:51:42.829Z,23.30
2022-12-19T01:54:12.877Z,21.77
2022-12-19T01:56:42.969Z,22.00
2022-12-19T01:59:13.086Z,24.27
2022-12-19T02:01:51.437Z,24.53
2022-12-19T02:04:20.886Z,24.53
2022-12-19T02:06:49.511Z,23.87
2022-12-19T02:09:19.623Z,24.97
2022-12-19T02:11:48.204Z,23.77
2022-12-19T02:14:16.342Z,24.17
2022-12-19T02:16:51.108Z,25.00
2022-12-19T02:19:19.351Z,24.73
2022-12-19T02:22:02.295Z,22.80
2022-12-19T02:24:57.423Z,23.77
2022-12-19T02:27:40.348Z,21.97
2022-12-19T02:30:11.194Z,23.37
2022-12-19T02:32:57.233Z,22.90
2022-12-19T02:35:24.892Z,23.60
2022-12-19T02:38:01.633Z,22.80
2022-12-19T02:40:34.357Z,24.80
2022-12-19T02:43:03.632Z,23.63
2022-12-19T02:45:33.487Z,24.33
2022-12-19T02:48:07.374Z,24.80
2022-12-19T02:50:37.143Z,23.70
2022-12-19T02:53:05.349Z,23.57
2022-12-19T02:55:34.341Z,23.27
2022-12-19T02:58:10.979Z,23.63
2022-12-19T03:00:43.551Z,24.23
2022-12-19T03:03:15.021Z,24.33
2022-12-19T03:06:01.364Z,23.83
2022-12-19T03:08:52.916Z,22.43
2022-12-19T03:11:22.336Z,22.60
2022-12-19T03:13:57.172Z,23.50
2022-12-19T03:16:25.458Z,22.80
2022-12-19T03:18:54.890Z,22.97
2022-12-19T03:21:26.817Z,23.00
2022-12-19T03:23:55.403Z,23.90
2022-12-19T03:26:25.173Z,20.97
2022-12-19T03:29:31.087Z,22.80
2022-12-19T03:32:00.535Z,21.77
2022-12-19T03:34:32.323Z,22.73
2022-12-19T03:37:03.280Z,22.97
2022-12-19T03:39:32.448Z,23.53
2022-12-19T03:42:19.741Z,21.97
2022-12-19T03:44:48.863Z,21.87
2022-12-19T03:47:23.307Z,22.43
2022-12-19T03:49:51.347Z,22.30
2022-12-19T03:52:39.972Z,23.73
2022-12-19T03:55:11.750Z,22.13
2022-12-19T03:58:02.304Z,23.10
2022-12-19T04:00:31.901Z,21.30
2022-12-19T04:02:59.854Z,22.30
2022-12-19T04:05:29.389Z,22.20
2022-12-19T04:07:59.198Z,22.80
2022-12-19T04:10:27.385Z,23.37
2022-12-19T04:12:57.842Z,22.23
2022-12-19T04:15:33.094Z,23.07
2022-12-19T04:18:02.494Z,22.27
2022-12-19T04:20:32.328Z,25.63
2022-12-19T04:23:04.046Z,23.67
2022-12-19T04:25:33.377Z,26.57
2022-12-19T04:28:05.486Z,26.87
2022-12-19T04:30:36.906Z,25.40
2022-12-19T04:33:04.801Z,22.73
2022-12-19T04:35:32.809Z,23.47
2022-12-19T04:38:00.397Z,21.93
2022-12-19T04:40:30.858Z,21.47
2022-12-19T04:42:58.299Z,27.93
2022-12-19T04:45:25.751Z,24.07
2022-12-19T04:47:53.402Z,21.30
2022-12-19T04:50:20.923Z,23.07
2022-12-19T04:52:48.387Z,20.87
2022-12-19T04:55:16.924Z,21.27
2022-12-19T04:57:44.651Z,21.47
2022-12-19T05:00:12.604Z,20.00
2022-12-19T05:02:41.393Z,21.50
2022-12-19T05:05:09.060Z,21.50
2022-12-19T05:07:36.292Z,21.50
2022-12-19T05:10:04.029Z,23.57
2022-12-19T05:12:31.427Z,26.27
2022-12-19T05:14:59.224Z,27.80
2022-12-19T05:17:26.556Z,26.30
2022-12-19T05:19:53.825Z,24.73
2022-12-19T05:22:21.098Z,25.30
2022-12-19T05:24:48.520Z,25.63
2022-12-19T05:27:16.097Z,23.13
2022-12-19T05:29:43.566Z,23.83
2022-12-19T05:32:11.262Z,23.07
2022-12-19T05:34:39.160Z,23.23
2022-12-19T05:37:06.764Z,22.23
2022-12-19T05:39:35.088Z,22.57
2022-12-19T05:42:07.372Z,23.60
2022-12-19T05:44:38.527Z,26.50
2022-12-19T05:47:05.828Z,23.97
2022-12-19T05:49:33.178Z,25.50
2022-12-19T05:52:00.671Z,25.77
2022-12-19T05:54:28.403Z,25.27
2022-12-19T05:56:56.471Z,23.17
2022-12-19T05:59:24.134Z,22.20
2022-12-19T06:01:51.551Z,21.33
2022-12-19T06:04:19.742Z,21.80
2022-12-19T06:06:47.116Z,23.57
2022-12-19T06:09:14.346Z,24.70
2022-12-19T06:11:42.404Z,20.63
2022-12-19T06:14:09.869Z,20.27
2022-12-19T06:16:37.391Z,20.07
2022-12-19T06:19:04.823Z,18.73
2022-12-19T06:21:32.916Z,19.73
2022-12-19T06:24:00.713Z,20.53
2022-12-19T06:26:28.303Z,18.93
2022-12-19T06:28:56.473Z,21.77
2022-12-19T06:31:25.189Z,20.77
2022-12-19T06:33:53.497Z,21.43
2022-12-19T06:36:24.444Z,22.13
2022-12-19T06:38:52.938Z,22.97
2022-12-19T06:41:39.992Z,20.30
2022-12-19T06:44:09.053Z,21.17
2022-12-19T06:46:37.756Z,20.60
2022-12-19T06:49:06.015Z,21.67
2022-12-19T06:51:33.447Z,23.80
2022-12-19T06:54:00.895Z,22.23
2022-12-19T06:56:28.795Z,21.60
2022-12-19T06:58:56.316Z,24.30
2022-12-19T07:01:28.100Z,23.83
2022-12-19T07:03:55.978Z,23.83
2022-12-19T07:06:24.140Z,27.40
2022-12-19T07:08:51.741Z,21.87
2022-12-19T07:11:19.037Z,21.87
2022-12-19T07:13:46.536Z,20.03
2022-12-19T07:16:14.813Z,18.63
2022-12-19T07:18:42.735Z,19.17
2022-12-19T07:21:19.405Z,20.70
2022-12-19T07:23:47.745Z,19.13
2022-12-19T07:26:15.459Z,19.57
2022-12-19T07:28:44.969Z,18.63
2022-12-19T07:31:13.476Z,17.73
2022-12-19T07:33:41.031Z,18.60
2022-12-19T07:36:08.657Z,20.23
2022-12-19T07:38:37.269Z,18.43
2022-12-19T07:41:04.902Z,20.60
2022-12-19T07:43:32.752Z,18.00
2022-12-19T07:46:00.066Z,17.80
2022-12-19T07:48:29.271Z,17.17
2022-12-19T07:50:57.017Z,18.13
2022-12-19T07:53:26.438Z,18.37
2022-12-19T07:55:54.207Z,18.17
2022-12-19T07:58:22.042Z,17.33
2022-12-19T08:01:00.920Z,17.17
2022-12-19T08:03:28.668Z,16.57
2022-12-19T08:06:06.314Z,16.57
2022-12-19T08:08:34.516Z,18.47
2022-12-19T08:11:09.358Z,17.90
2022-12-19T08:13:40.826Z,16.23
2022-12-19T08:16:12.532Z,17.87
2022-12-19T08:18:40.558Z,16.97
2022-12-19T08:21:08.595Z,16.80
2022-12-19T08:23:35.997Z,16.03
2022-12-19T08:26:04.549Z,15.50
2022-12-19T08:28:33.294Z,17.20
2022-12-19T08:31:11.575Z,16.07
2022-12-19T08:33:39.311Z,16.10
2022-12-19T08:36:07.435Z,19.57
2022-12-19T08:38:35.044Z,19.07
2022-12-19T08:41:05.214Z,20.43
2022-12-19T08:43:33.200Z,18.90
2022-12-19T08:46:00.671Z,17.17
2022-12-19T08:48:28.117Z,20.93
2022-12-19T08:50:59.305Z,18.13
2022-12-19T08:53:27.935Z,19.27
2022-12-19T08:55:59.086Z,18.80
2022-12-19T08:58:27.232Z,17.13
2022-12-19T09:00:58.892Z,19.77
2022-12-19T09:03:42.791Z,20.20
2022-12-19T09:06:19.069Z,20.13
2022-12-19T09:08:46.964Z,19.90
2022-12-19T09:11:16.085Z,18.60
2022-12-19T09:13:43.770Z,18.63
2022-12-19T09:16:19.164Z,19.63
2022-12-19T09:18:48.752Z,18.50
2022-12-19T09:21:16.891Z,16.97
2022-12-19T09:23:45.961Z,15.77
2022-12-19T09:26:15.352Z,16.53
2022-12-19T09:28:43.039Z,16.47
2022-12-19T09:31:15.897Z,14.77
2022-12-19T09:33:44.094Z,15.53
2022-12-19T09:36:15.923Z,15.23
2022-12-19T09:38:43.728Z,15.23
2022-12-19T09:41:18.068Z,14.63
2022-12-19T09:43:50.021Z,14.97
2022-12-19T09:46:18.932Z,14.23
2022-12-19T09:48:50.939Z,15.20
2022-12-19T09:51:25.235Z,14.17
2022-12-19T09:54:08.359Z,13.97
2022-12-19T09:56:45.995Z,12.90
2022-12-19T09:59:41.414Z,13.90
2022-12-19T10:02:10.521Z,14.80
2022-12-19T10:04:45.814Z,13.53
2022-12-19T10:07:35.414Z,14.07
2022-12-19T10:12:35.965Z,15.90
2022-12-19T10:12:53.019Z,16.67
2022-12-19T10:15:25.275Z,21.80
2022-12-19T10:18:11.159Z,20.00
2022-12-19T10:20:39.958Z,15.13
2022-12-19T10:23:34.252Z,13.10
2022-12-19T10:26:07.391Z,12.37
2022-12-19T10:28:54.795Z,13.17
2022-12-19T10:31:34.826Z,13.33
2022-12-19T10:34:11.932Z,11.70
2022-12-19T10:37:19.393Z,15.00
2022-12-19T10:39:43.441Z,13.37
2022-12-19T10:42:14.184Z,14.43
2022-12-19T10:44:43.710Z,13.93
2022-12-19T10:47:15.738Z,12.83
2022-12-19T10:49:43.231Z,15.07
2022-12-19T10:52:12.697Z,15.60
2022-12-19T10:54:41.861Z,11.73
2022-12-19T10:57:26.886Z,12.27
2022-12-19T10:59:58.126Z,13.33
2022-12-19T11:02:43.221Z,13.80
2022-12-19T11:05:27.714Z,12.90
2022-12-19T11:08:07.580Z,12.67
2022-12-19T11:12:12.606Z,13.03
2022-12-19T11:17:13.324Z,13.30
2022-12-19T11:22:55.072Z,13.23
2022-12-19T11:29:16.392Z,13.43
2022-12-19T11:30:09.081Z,14.90
2022-12-19T11:30:36.950Z,13.17
2022-12-19T11:30:43.937Z,15.03
2022-12-19T11:31:52.993Z,13.87
2022-12-19T11:33:54.155Z,13.10
2022-12-19T11:36:57.021Z,13.33
2022-12-19T11:39:48.001Z,11.20
2022-12-19T11:42:18.643Z,17.90
2022-12-19T11:44:49.584Z,10.97
2022-12-19T11:47:20.614Z,12.17
2022-12-19T11:50:17.607Z,12.20
2022-12-19T11:53:11.522Z,12.47
2022-12-19T11:55:56.115Z,11.47
2022-12-19T11:58:29.143Z,11.60
2022-12-19T12:01:03.060Z,11.20
2022-12-19T12:04:01.842Z,10.10
2022-12-19T12:06:35.124Z,32.87
2022-12-19T12:13:31.761Z,14.37
2022-12-19T12:17:07.479Z,11.90
2022-12-19T12:24:32.503Z,12.10
2022-12-19T12:31:00.176Z,11.90
2022-12-19T12:31:08.294Z,10.87
2022-12-19T12:31:16.921Z,11.80
2022-12-19T12:31:38.990Z,11.33
2022-12-19T12:31:53.909Z,11.63
2022-12-19T12:35:56.639Z,10.90
2022-12-19T12:38:30.778Z,12.30
2022-12-19T12:41:01.636Z,10.70
2022-12-19T12:43:47.756Z,10.47
2022-12-19T12:46:21.782Z,10.80
2022-12-19T12:48:52.250Z,13.30
2022-12-19T12:51:19.850Z,11.87
2022-12-19T12:53:48.931Z,11.43
2022-12-19T12:56:17.952Z,12.73
2022-12-19T12:58:55.457Z,11.60
2022-12-19T13:01:29.280Z,11.80
2022-12-19T13:03:57.078Z,13.73
2022-12-19T13:06:35.069Z,15.17
2022-12-19T13:09:05.532Z,15.30
2022-12-19T13:12:07.599Z,16.93
2022-12-19T13:14:35.022Z,15.90
2022-12-19T13:17:03.122Z,16.40
2022-12-19T13:19:33.278Z,16.03
2022-12-19T13:22:09.872Z,14.37
2022-12-19T13:24:40.405Z,15.77
2022-12-19T13:27:21.169Z,14.70
2022-12-19T13:30:04.417Z,14.43
2022-12-19T13:32:54.926Z,13.20
2022-12-19T13:36:59.589Z,14.07
2022-12-19T13:39:55.761Z,14.93
2022-12-19T13:41:25.382Z,13.80
2022-12-19T13:43:58.855Z,14.77
2022-12-19T13:46:43.429Z,14.33
2022-12-19T13:49:10.864Z,13.53
2022-12-19T13:51:42.470Z,15.83
2022-12-19T13:54:36.182Z,16.87
2022-12-19T13:57:09.078Z,15.27
2022-12-19T13:59:38.952Z,13.53
2022-12-19T14:02:17.662Z,12.50
2022-12-19T14:04:45.463Z,14.73
2022-12-19T14:07:36.034Z,15.80
2022-12-19T14:11:39.309Z,16.40
2022-12-19T14:13:58.818Z,15.17
2022-12-19T14:15:58.799Z,15.27
2022-12-19T14:18:42.489Z,14.57
2022-12-19T14:22:06.930Z,13.93
2022-12-19T14:24:10.422Z,13.40
2022-12-19T14:28:18.427Z,14.93
2022-12-19T14:30:28.805Z,14.40
2022-12-19T14:33:45.560Z,14.27
2022-12-19T14:36:06.106Z,13.97
2022-12-19T14:39:19.485Z,14.67
2022-12-19T14:41:09.346Z,15.47
2022-12-19T14:43:59.309Z,15.73
2022-12-19T14:52:11.743Z,16.20
2022-12-19T14:54:26.071Z,16.17
2022-12-19T14:54:29.932Z,15.90
2022-12-19T14:56:16.240Z,15.10
2022-12-19T14:58:56.294Z,16.23
2022-12-19T15:01:24.838Z,17.00
2022-12-19T15:04:49.168Z,17.13
2022-12-19T15:07:07.279Z,17.90
2022-12-19T15:11:07.283Z,16.40
2022-12-19T15:14:57.776Z,16.83
2022-12-19T15:15:59.510Z,17.10
2022-12-19T15:18:33.274Z,16.37
2022-12-19T15:21:02.125Z,18.60
2022-12-19T15:23:30.390Z,17.53
2022-12-19T15:26:04.654Z,17.50
2022-12-19T15:28:39.427Z,17.03
2022-12-19T15:31:11.781Z,16.20
2022-12-19T15:33:59.825Z,17.20
2022-12-19T15:36:27.090Z,17.13
2022-12-19T15:38:54.804Z,15.80
2022-12-19T15:41:23.502Z,17.53
2022-12-19T15:44:03.609Z,15.80
2022-12-19T15:46:32.166Z,16.00
2022-12-19T15:48:59.587Z,18.33
2022-12-19T15:51:26.936Z,19.80
2022-12-19T15:53:56.940Z,18.30
2022-12-19T15:56:35.104Z,16.33
2022-12-19T15:59:03.491Z,17.80
2022-12-19T16:01:33.133Z,18.13
2022-12-19T16:04:03.563Z,16.90
2022-12-19T16:06:31.203Z,16.63
2022-12-19T16:08:59.365Z,20.10
2022-12-19T16:11:26.705Z,18.67
2022-12-19T16:13:56.184Z,17.67
2022-12-19T16:16:23.616Z,17.60
2022-12-19T16:18:50.945Z,17.70
2022-12-19T16:21:27.527Z,17.33
2022-12-19T16:24:00.788Z,20.77
2022-12-19T16:26:33.856Z,19.83
2022-12-19T16:29:01.637Z,20.80
2022-12-19T16:31:29.394Z,23.33
2022-12-19T16:33:56.792Z,22.93
2022-12-19T16:36:24.111Z,25.30
2022-12-19T16:38:51.435Z,23.17
2022-12-19T16:41:24.277Z,24.83
2022-12-19T16:43:52.468Z,23.73
2022-12-19T16:46:24.019Z,23.13
2022-12-19T16:48:51.509Z,23.03
2022-12-19T16:51:20.459Z,21.03
2022-12-19T16:53:48.875Z,18.73
2022-12-19T16:56:22.220Z,17.50
2022-12-19T16:58:49.990Z,16.23
2022-12-19T17:01:17.676Z,16.80
2022-12-19T17:03:45.683Z,18.70
2022-12-19T17:06:17.706Z,20.60
2022-12-19T17:08:45.273Z,17.77
2022-12-19T17:11:16.023Z,17.23
2022-12-19T17:13:45.815Z,18.93
2022-12-19T17:16:13.710Z,24.90
2022-12-19T17:18:42.493Z,24.17
2022-12-19T17:21:17.106Z,19.50
2022-12-19T17:23:44.418Z,16.47
2022-12-19T17:26:17.448Z,18.83
2022-12-19T17:28:48.309Z,19.23
2022-12-19T17:31:27.280Z,24.37
2022-12-19T17:33:58.480Z,21.07
2022-12-19T17:36:36.640Z,18.33
2022-12-19T17:39:07.412Z,17.23
2022-12-19T17:41:34.931Z,16.70
2022-12-19T17:44:02.200Z,16.77
2022-12-19T17:46:29.587Z,16.67
2022-12-19T17:48:56.896Z,16.47
2022-12-19T17:51:25.011Z,17.40
2022-12-19T17:53:52.349Z,16.20
2022-12-19T17:56:20.929Z,15.43
2022-12-19T17:58:48.734Z,15.40
2022-12-19T18:01:23.760Z,17.63
2022-12-19T18:03:52.008Z,20.07
2022-12-19T18:06:19.530Z,22.83
2022-12-19T18:08:47.033Z,16.47
2022-12-19T18:11:22.205Z,18.10
2022-12-19T18:13:50.122Z,16.97
2022-12-19T18:16:18.602Z,16.80
2022-12-19T18:18:46.085Z,16.47
2022-12-19T18:21:18.045Z,17.30
2022-12-19T18:23:46.071Z,18.03
2022-12-19T18:26:13.981Z,17.07
2022-12-19T18:28:42.083Z,17.60
2022-12-19T18:31:15.827Z,16.27
2022-12-19T18:33:45.427Z,20.17
2022-12-19T18:36:21.372Z,17.93
2022-12-19T18:38:49.692Z,17.10
2022-12-19T18:41:17.939Z,15.47
2022-12-19T18:43:45.718Z,15.17
2022-12-19T18:46:15.013Z,14.07
2022-12-19T18:48:43.075Z,14.40
2022-12-19T18:51:19.023Z,15.47
2022-12-19T18:53:47.161Z,14.60
2022-12-19T18:56:15.032Z,14.93
2022-12-19T18:58:42.472Z,14.83
2022-12-19T19:01:15.973Z,14.53
2022-12-19T19:03:53.659Z,14.27
2022-12-19T19:06:22.267Z,14.43
2022-12-19T19:08:51.610Z,14.53
2022-12-19T19:11:20.382Z,15.67
2022-12-19T19:13:47.671Z,19.67
2022-12-19T19:16:20.603Z,16.73
2022-12-19T19:18:49.698Z,17.10
2022-12-19T19:21:17.049Z,16.20
2022-12-19T19:23:48.638Z,16.30
2022-12-19T19:26:16.025Z,15.77
2022-12-19T19:28:48.594Z,15.80
2022-12-19T19:31:20.992Z,15.37
2022-12-19T19:33:50.225Z,16.17
2022-12-19T19:36:19.801Z,18.77
2022-12-19T19:38:48.678Z,18.80
2022-12-19T19:41:16.303Z,17.67
2022-12-19T19:43:43.627Z,18.10
2022-12-19T19:46:11.149Z,20.57
2022-12-19T19:48:38.603Z,21.83
2022-12-19T19:51:06.086Z,23.70
2022-12-19T19:53:34.045Z,23.20
2022-12-19T19:56:02.057Z,17.50
2022-12-19T19:58:30.190Z,16.77
2022-12-19T20:00:57.884Z,17.93
2022-12-19T20:03:25.354Z,24.40
2022-12-19T20:06:02.313Z,26.53
2022-12-19T20:08:35.200Z,23.50
2022-12-19T20:11:06.846Z,18.87
2022-12-19T20:13:34.537Z,20.43
2022-12-19T20:16:06.867Z,18.63
2022-12-19T20:18:35.813Z,16.90
2022-12-19T20:21:06.551Z,16.10
2022-12-19T20:23:36.790Z,15.30
2022-12-19T20:26:05.158Z,18.23
2022-12-19T20:28:32.773Z,16.00
2022-12-19T20:31:00.670Z,16.27
2022-12-19T20:33:28.151Z,16.03
2022-12-19T20:35:58.818Z,17.70
2022-12-19T20:38:26.415Z,17.13
2022-12-19T20:40:56.022Z,15.97
2022-12-19T20:43:24.229Z,17.23
2022-12-19T20:45:52.054Z,16.80
2022-12-19T20:48:19.519Z,16.20
2022-12-19T20:50:46.813Z,15.67
2022-12-19T20:53:14.940Z,16.00
2022-12-19T20:55:42.224Z,16.13
2022-12-19T20:58:09.840Z,13.43
2022-12-19T21:00:37.514Z,13.20
2022-12-19T21:05:56.811Z,15.50
2022-12-19T21:08:24.740Z,14.03
2022-12-19T21:10:52.608Z,17.43
2022-12-19T21:13:20.468Z,41.17
2022-12-19T21:15:52.356Z,59.27
2022-12-19T21:18:20.207Z,21.13
2022-12-19T21:20:47.782Z,31.97
2022-12-19T21:23:15.410Z,22.93
2022-12-19T21:25:42.651Z,14.97
2022-12-19T21:28:10.293Z,16.27
2022-12-19T21:30:38.031Z,19.37
2022-12-19T21:33:05.676Z,23.97
2022-12-19T21:35:34.502Z,15.20
2022-12-19T21:38:02.690Z,15.10
2022-12-19T21:40:30.143Z,20.47
2022-12-19T21:42:57.412Z,18.53
2022-12-19T21:45:24.724Z,17.37
2022-12-19T21:47:52.499Z,14.00
2022-12-19T21:50:19.883Z,14.70
2022-12-19T21:52:50.163Z,14.60
2022-12-19T21:55:21.712Z,14.20
2022-12-19T21:57:49.264Z,12.57
2022-12-19T22:00:16.669Z,14.53
2022-12-19T22:03:12.011Z,13.57
2022-12-19T22:05:35.156Z,13.83
2022-12-19T22:08:02.436Z,13.93
2022-12-19T22:10:29.831Z,13.03
2022-12-19T22:12:57.139Z,14.37
2022-12-19T22:15:24.369Z,14.00
2022-12-19T22:17:52.127Z,13.33
2022-12-19T22:20:19.410Z,14.30
2022-12-19T22:22:49.822Z,14.17
2022-12-19T22:25:17.547Z,14.87
2022-12-19T22:27:44.784Z,13.43
2022-12-19T22:30:12.272Z,14.27
2022-12-19T22:32:39.599Z,17.10
2022-12-19T22:35:07.142Z,22.73
2022-12-19T22:37:34.531Z,19.87
2022-12-19T22:40:04.126Z,24.10
2022-12-19T22:42:31.472Z,22.53
2022-12-19T22:44:59.693Z,25.20
2022-12-19T22:47:27.109Z,20.27
2022-12-19T22:49:54.398Z,15.83
2022-12-19T22:52:23.859Z,13.07
2022-12-19T22:54:51.152Z,12.57
2022-12-19T22:57:18.379Z,12.07
2022-12-19T22:59:45.659Z,12.90
2022-12-19T23:02:13.165Z,13.03
2022-12-19T23:04:40.688Z,13.83
2022-12-19T23:07:08.164Z,17.30
2022-12-19T23:09:35.383Z,17.17
2022-12-19T23:12:02.655Z,16.53
2022-12-19T23:14:30.089Z,16.50
2022-12-19T23:16:57.572Z,17.10
2022-12-19T23:19:25.045Z,16.37
2022-12-19T23:21:52.298Z,18.90
2022-12-19T23:24:19.969Z,16.53
2022-12-19T23:26:47.654Z,16.77
2022-12-19T23:29:16.300Z,17.73
2022-12-19T23:31:46.017Z,18.63
2022-12-19T23:34:13.445Z,17.63
2022-12-19T23:39:27.970Z,14.00
2022-12-19T23:41:57.612Z,11.83
2022-12-19T23:44:25.094Z,11.00
2022-12-19T23:46:53.219Z,11.67
2022-12-19T23:49:22.932Z,10.27
2022-12-19T23:51:50.215Z,10.33
2022-12-19T23:54:17.437Z,11.93
2022-12-19T23:56:44.885Z,12.13
2022-12-19T23:59:12.217Z,11.23
